VKG7AJ EKRN-LGSK
Flight info
| Callsign | VKG7AJ |
|---|---|
| Flight time | N/A |
| Altitude | 35000 |
| Route | ROE L996 DENKO DCT VALPI DCT NIT DCT ALAMU DCT VEBOS DCT TONDO DCT RAXAD DCT SKP |
| Aircraft | A321/M-SDE3FGHIRWY/LB1 |
Departure
| Time | N/A |
|---|---|
| Airport | Bornholm Airport (EKRN) |
Arrival
| Time | 2026-05-05 14:29 |
|---|---|
| Airport | Skiathos Island National Airport (LGSK) |
| Time | Latitude | Longitude | Altitude | Speed | Heading |
|---|---|---|---|---|---|
| 2026-05-05 13:33 | 44.81470 | 20.35494 | 34993 ft | 460 kts | 152° |
| 2026-05-05 13:33 | 44.78671 | 20.37708 | 34992 ft | 460 kts | 152° |
| 2026-05-05 13:33 | 44.73090 | 20.42114 | 34790 ft | 460 kts | 152° |
| 2026-05-05 13:34 | 44.70306 | 20.44307 | 35001 ft | 459 kts | 152° |
| 2026-05-05 13:34 | 44.67517 | 20.46504 | 34995 ft | 461 kts | 152° |
| 2026-05-05 13:34 | 44.61905 | 20.50915 | 34991 ft | 462 kts | 152° |
| 2026-05-05 13:35 | 44.56323 | 20.55281 | 34989 ft | 462 kts | 152° |
| 2026-05-05 13:35 | 44.50702 | 20.59667 | 34985 ft | 462 kts | 152° |
| 2026-05-05 13:36 | 44.45083 | 20.64050 | 34975 ft | 462 kts | 152° |
| 2026-05-05 13:36 | 44.39457 | 20.68430 | 34975 ft | 463 kts | 152° |
| 2026-05-05 13:37 | 44.33821 | 20.72810 | 34976 ft | 464 kts | 152° |
| 2026-05-05 13:37 | 44.28215 | 20.77162 | 34979 ft | 464 kts | 152° |
| 2026-05-05 13:38 | 44.22562 | 20.81533 | 34975 ft | 465 kts | 153° |
| 2026-05-05 13:38 | 44.16897 | 20.85892 | 34976 ft | 465 kts | 153° |
| 2026-05-05 13:39 | 44.11270 | 20.90217 | 34979 ft | 465 kts | 152° |
| 2026-05-05 13:39 | 44.05600 | 20.94580 | 34982 ft | 466 kts | 152° |
| 2026-05-05 13:40 | 43.99927 | 20.98941 | 34973 ft | 466 kts | 152° |
| 2026-05-05 13:40 | 43.94242 | 21.03288 | 34972 ft | 467 kts | 153° |
| 2026-05-05 13:41 | 43.88586 | 21.07599 | 34986 ft | 467 kts | 152° |
| 2026-05-05 13:41 | 43.82883 | 21.11931 | 34986 ft | 468 kts | 152° |
| 2026-05-05 13:42 | 43.77173 | 21.16265 | 34980 ft | 468 kts | 153° |
| 2026-05-05 13:42 | 43.71463 | 21.20589 | 34978 ft | 468 kts | 153° |
| 2026-05-05 13:43 | 43.65746 | 21.24907 | 34975 ft | 468 kts | 153° |
| 2026-05-05 13:43 | 43.60062 | 21.29196 | 34984 ft | 469 kts | 152° |
| 2026-05-05 13:44 | 43.54327 | 21.33518 | 34974 ft | 470 kts | 153° |
| 2026-05-05 13:44 | 43.48586 | 21.37834 | 34977 ft | 470 kts | 153° |
| 2026-05-05 13:45 | 43.42841 | 21.42138 | 34982 ft | 470 kts | 153° |
| 2026-05-05 13:45 | 43.37091 | 21.46440 | 34993 ft | 471 kts | 152° |
| 2026-05-05 13:46 | 43.31373 | 21.50710 | 34977 ft | 471 kts | 153° |
| 2026-05-05 13:46 | 43.25607 | 21.55013 | 34983 ft | 472 kts | 153° |
| 2026-05-05 13:47 | 43.19835 | 21.59309 | 34989 ft | 472 kts | 153° |
| 2026-05-05 13:47 | 43.14046 | 21.63592 | 34994 ft | 473 kts | 153° |
| 2026-05-05 13:48 | 43.08292 | 21.67840 | 34986 ft | 473 kts | 153° |
| 2026-05-05 13:48 | 43.02500 | 21.72113 | 34992 ft | 473 kts | 153° |
| 2026-05-05 13:49 | 42.96707 | 21.76389 | 34999 ft | 474 kts | 153° |
| 2026-05-05 13:49 | 42.90903 | 21.80657 | 35010 ft | 474 kts | 153° |
| 2026-05-05 13:50 | 42.85131 | 21.84889 | 35003 ft | 474 kts | 153° |
| 2026-05-05 13:50 | 42.79308 | 21.89143 | 35002 ft | 475 kts | 153° |
| 2026-05-05 13:51 | 42.73483 | 21.93397 | 35001 ft | 475 kts | 153° |
| 2026-05-05 13:51 | 42.67655 | 21.97648 | 35006 ft | 475 kts | 153° |
| 2026-05-05 13:52 | 42.61822 | 22.01895 | 35005 ft | 476 kts | 153° |
| 2026-05-05 13:52 | 42.56022 | 22.06107 | 35013 ft | 476 kts | 153° |
| 2026-05-05 13:53 | 42.50176 | 22.10344 | 35023 ft | 476 kts | 153° |
| 2026-05-05 13:53 | 42.44324 | 22.14568 | 35035 ft | 477 kts | 153° |
| 2026-05-05 13:54 | 42.38461 | 22.18791 | 35018 ft | 477 kts | 153° |
| 2026-05-05 13:54 | 42.32630 | 22.22983 | 35021 ft | 478 kts | 153° |
| 2026-05-05 13:55 | 42.26483 | 22.26298 | 35018 ft | 476 kts | 163° |
| 2026-05-05 13:55 | 42.20210 | 22.29169 | 35021 ft | 476 kts | 163° |
| 2026-05-05 13:56 | 42.13932 | 22.32051 | 35012 ft | 477 kts | 163° |
| 2026-05-05 13:56 | 42.07647 | 22.34941 | 35014 ft | 477 kts | 163° |
| 2026-05-05 13:57 | 42.01357 | 22.37826 | 35015 ft | 478 kts | 163° |
| 2026-05-05 13:57 | 41.95106 | 22.40678 | 35008 ft | 478 kts | 163° |
| 2026-05-05 13:58 | 41.88797 | 22.43544 | 35011 ft | 479 kts | 163° |
| 2026-05-05 13:58 | 41.82482 | 22.46413 | 35023 ft | 479 kts | 163° |
| 2026-05-05 13:59 | 41.72995 | 22.50718 | 35007 ft | 481 kts | 163° |
| 2026-05-05 14:00 | 41.64551 | 22.54551 | 35003 ft | 482 kts | 163° |
| 2026-05-05 14:00 | 41.57118 | 22.57889 | 35010 ft | 483 kts | 163° |
| 2026-05-05 14:01 | 41.50795 | 22.60730 | 34998 ft | 483 kts | 163° |
| 2026-05-05 14:01 | 41.44424 | 22.63592 | 34994 ft | 484 kts | 163° |
| 2026-05-05 14:02 | 41.38038 | 22.66461 | 35009 ft | 484 kts | 163° |
| 2026-05-05 14:02 | 41.31654 | 22.69330 | 35000 ft | 484 kts | 163° |
| 2026-05-05 14:03 | 41.25305 | 22.72158 | 34992 ft | 485 kts | 163° |
| 2026-05-05 14:03 | 41.18906 | 22.75004 | 34993 ft | 485 kts | 163° |
| 2026-05-05 14:04 | 41.12497 | 22.77848 | 34993 ft | 486 kts | 163° |
| 2026-05-05 14:04 | 41.06078 | 22.80689 | 34992 ft | 487 kts | 163° |
| 2026-05-05 14:05 | 40.99682 | 22.83519 | 34697 ft | 489 kts | 163° |
| 2026-05-05 14:05 | 40.96456 | 22.84949 | 34339 ft | 489 kts | 163° |
| 2026-05-05 14:05 | 40.93232 | 22.86377 | 33978 ft | 489 kts | 163° |
| 2026-05-05 14:06 | 40.90004 | 22.87802 | 33575 ft | 489 kts | 163° |
| 2026-05-05 14:06 | 40.86773 | 22.89228 | 33150 ft | 491 kts | 163° |
| 2026-05-05 14:06 | 40.83530 | 22.90654 | 32761 ft | 492 kts | 163° |
| 2026-05-05 14:06 | 40.80279 | 22.92082 | 32371 ft | 493 kts | 163° |
| 2026-05-05 14:07 | 40.77073 | 22.93490 | 31986 ft | 492 kts | 163° |
| 2026-05-05 14:07 | 40.73832 | 22.94913 | 31606 ft | 490 kts | 163° |
| 2026-05-05 14:07 | 40.70610 | 22.96326 | 31227 ft | 487 kts | 163° |
| 2026-05-05 14:07 | 40.67404 | 22.97731 | 30859 ft | 484 kts | 163° |
| 2026-05-05 14:08 | 40.64211 | 22.99125 | 30479 ft | 484 kts | 164° |
| 2026-05-05 14:08 | 40.61019 | 23.00518 | 30118 ft | 483 kts | 164° |
| 2026-05-05 14:08 | 40.57835 | 23.01910 | 29705 ft | 481 kts | 163° |
| 2026-05-05 14:08 | 40.54672 | 23.03293 | 29284 ft | 477 kts | 163° |
| 2026-05-05 14:09 | 40.51572 | 23.04646 | 28867 ft | 474 kts | 163° |
| 2026-05-05 14:09 | 40.48452 | 23.06006 | 28409 ft | 471 kts | 163° |
| 2026-05-05 14:09 | 40.45354 | 23.07354 | 27933 ft | 467 kts | 163° |
| 2026-05-05 14:09 | 40.42283 | 23.08689 | 27465 ft | 463 kts | 163° |
| 2026-05-05 14:10 | 40.39234 | 23.10010 | 26999 ft | 460 kts | 163° |
| 2026-05-05 14:10 | 40.36208 | 23.11320 | 26559 ft | 456 kts | 163° |
| 2026-05-05 14:10 | 40.33210 | 23.12616 | 26085 ft | 452 kts | 163° |
| 2026-05-05 14:10 | 40.30233 | 23.13904 | 25617 ft | 449 kts | 162° |
| 2026-05-05 14:11 | 40.27280 | 23.15185 | 25120 ft | 446 kts | 162° |
| 2026-05-05 14:11 | 40.24384 | 23.16443 | 24601 ft | 443 kts | 162° |
| 2026-05-05 14:11 | 40.21462 | 23.17706 | 24094 ft | 441 kts | 162° |
| 2026-05-05 14:11 | 40.18556 | 23.18955 | 23591 ft | 439 kts | 162° |
| 2026-05-05 14:12 | 40.15663 | 23.20193 | 23056 ft | 435 kts | 162° |
| 2026-05-05 14:12 | 40.12808 | 23.21419 | 22581 ft | 430 kts | 162° |
| 2026-05-05 14:12 | 40.09984 | 23.22634 | 22099 ft | 425 kts | 162° |
| 2026-05-05 14:12 | 40.07198 | 23.23833 | 21629 ft | 420 kts | 162° |
| 2026-05-05 14:13 | 40.04426 | 23.25026 | 21151 ft | 417 kts | 162° |
| 2026-05-05 14:13 | 40.01719 | 23.26187 | 20676 ft | 413 kts | 162° |
| 2026-05-05 14:13 | 39.98999 | 23.27353 | 20192 ft | 410 kts | 162° |
| 2026-05-05 14:13 | 39.96301 | 23.28509 | 19701 ft | 407 kts | 161° |
| 2026-05-05 14:14 | 39.93611 | 23.29659 | 19205 ft | 405 kts | 161° |
| 2026-05-05 14:14 | 39.90941 | 23.30803 | 18708 ft | 403 kts | 161° |
| 2026-05-05 14:14 | 39.88282 | 23.31942 | 18209 ft | 401 kts | 161° |
| 2026-05-05 14:14 | 39.85637 | 23.33072 | 17697 ft | 398 kts | 161° |
| 2026-05-05 14:15 | 39.83017 | 23.34187 | 17204 ft | 395 kts | 161° |
| 2026-05-05 14:15 | 39.80419 | 23.35290 | 16741 ft | 391 kts | 161° |
| 2026-05-05 14:15 | 39.77876 | 23.36368 | 16275 ft | 388 kts | 161° |
| 2026-05-05 14:15 | 39.75322 | 23.37453 | 15812 ft | 385 kts | 161° |
| 2026-05-05 14:16 | 39.72785 | 23.38533 | 15348 ft | 382 kts | 161° |
| 2026-05-05 14:16 | 39.70263 | 23.39602 | 14892 ft | 380 kts | 161° |
| 2026-05-05 14:16 | 39.67757 | 23.40662 | 14434 ft | 377 kts | 161° |
| 2026-05-05 14:16 | 39.65269 | 23.41715 | 13972 ft | 375 kts | 161° |
| 2026-05-05 14:17 | 39.62795 | 23.42766 | 13478 ft | 373 kts | 161° |
| 2026-05-05 14:17 | 39.60342 | 23.43810 | 13004 ft | 369 kts | 161° |
| 2026-05-05 14:17 | 39.57912 | 23.44844 | 12557 ft | 366 kts | 161° |
| 2026-05-05 14:17 | 39.55533 | 23.45854 | 12098 ft | 363 kts | 161° |
| 2026-05-05 14:18 | 39.53139 | 23.46866 | 11632 ft | 361 kts | 161° |
| 2026-05-05 14:18 | 39.50761 | 23.47868 | 11169 ft | 358 kts | 161° |
| 2026-05-05 14:18 | 39.48398 | 23.48860 | 10704 ft | 356 kts | 161° |
| 2026-05-05 14:18 | 39.46049 | 23.49847 | 10366 ft | 350 kts | 161° |
| 2026-05-05 14:19 | 39.43775 | 23.50803 | 10237 ft | 338 kts | 161° |
| 2026-05-05 14:19 | 39.41582 | 23.51726 | 10113 ft | 326 kts | 161° |
| 2026-05-05 14:19 | 39.39466 | 23.52615 | 9994 ft | 314 kts | 161° |
| 2026-05-05 14:19 | 39.37422 | 23.53474 | 9808 ft | 305 kts | 161° |
| 2026-05-05 14:20 | 39.35419 | 23.54317 | 9469 ft | 301 kts | 161° |
| 2026-05-05 14:20 | 39.33461 | 23.55143 | 9084 ft | 299 kts | 161° |
| 2026-05-05 14:20 | 39.31491 | 23.55971 | 8616 ft | 297 kts | 161° |
| 2026-05-05 14:20 | 39.29533 | 23.56792 | 8137 ft | 295 kts | 161° |
| 2026-05-05 14:21 | 39.27576 | 23.57612 | 7652 ft | 297 kts | 161° |
| 2026-05-05 14:21 | 39.25617 | 23.58434 | 7268 ft | 295 kts | 161° |
| 2026-05-05 14:21 | 39.23670 | 23.59252 | 6901 ft | 294 kts | 161° |
| 2026-05-05 14:21 | 39.21731 | 23.60064 | 6536 ft | 292 kts | 162° |
| 2026-05-05 14:22 | 39.19789 | 23.60805 | 6154 ft | 291 kts | 170° |
| 2026-05-05 14:22 | 39.17811 | 23.60890 | 5795 ft | 288 kts | 189° |
| 2026-05-05 14:22 | 39.15905 | 23.60194 | 5427 ft | 283 kts | 207° |
| 2026-05-05 14:22 | 39.14157 | 23.59050 | 5074 ft | 281 kts | 209° |
| 2026-05-05 14:23 | 39.12425 | 23.57910 | 4722 ft | 279 kts | 209° |
| 2026-05-05 14:23 | 39.10706 | 23.56786 | 4355 ft | 274 kts | 209° |
| 2026-05-05 14:23 | 39.09037 | 23.55700 | 3997 ft | 262 kts | 209° |
| 2026-05-05 14:23 | 39.07462 | 23.54677 | 3696 ft | 245 kts | 209° |
| 2026-05-05 14:24 | 39.06001 | 23.53728 | 3406 ft | 227 kts | 209° |
| 2026-05-05 14:24 | 39.04682 | 23.52870 | 3152 ft | 205 kts | 209° |
| 2026-05-05 14:24 | 39.03425 | 23.52049 | 2884 ft | 200 kts | 210° |
| 2026-05-05 14:24 | 39.02371 | 23.50959 | 2706 ft | 193 kts | 238° |
| 2026-05-05 14:25 | 39.01976 | 23.49358 | 2553 ft | 188 kts | 272° |
| 2026-05-05 14:25 | 39.02326 | 23.47780 | 2431 ft | 185 kts | 304° |
| 2026-05-05 14:25 | 39.03286 | 23.46714 | 2281 ft | 185 kts | 335° |
| 2026-05-05 14:25 | 39.04520 | 23.46491 | 2129 ft | 174 kts | 7° |
| 2026-05-05 14:26 | 39.05648 | 23.46818 | 2037 ft | 157 kts | 11° |
| 2026-05-05 14:26 | 39.06683 | 23.47119 | 1901 ft | 149 kts | 10° |
| 2026-05-05 14:26 | 39.07676 | 23.47404 | 1781 ft | 147 kts | 10° |
| 2026-05-05 14:26 | 39.08671 | 23.47691 | 1672 ft | 146 kts | 11° |
| 2026-05-05 14:27 | 39.09663 | 23.47979 | 1544 ft | 146 kts | 11° |
| 2026-05-05 14:27 | 39.10661 | 23.48200 | 1347 ft | 146 kts | 2° |
| 2026-05-05 14:27 | 39.11675 | 23.48233 | 1116 ft | 143 kts | 360° |
| 2026-05-05 14:27 | 39.12679 | 23.48223 | 902 ft | 146 kts | 2° |
| 2026-05-05 14:28 | 39.13651 | 23.48529 | 740 ft | 143 kts | 21° |
| 2026-05-05 14:28 | 39.14577 | 23.48990 | 557 ft | 143 kts | 21° |
| 2026-05-05 14:28 | 39.15524 | 23.49395 | 378 ft | 142 kts | 19° |
| 2026-05-05 14:28 | 39.16439 | 23.49796 | 169 ft | 140 kts | 19° |
| 2026-05-05 14:29 | 39.17354 | 23.50207 | 37 ft | 133 kts | 19° |
| 2026-05-05 14:29 | 39.18021 | 23.50506 | 47 ft | 65 kts | 19° |
| 2026-05-05 14:29 | 39.18329 | 23.50643 | 53 ft | 35 kts | 18° |
| 2026-05-05 14:29 | 39.18461 | 23.50698 | 58 ft | 11 kts | 12° |
| 2026-05-05 14:30 | 39.18521 | 23.50703 | 61 ft | 8 kts | 43° |
| 2026-05-05 14:30 | 39.18508 | 23.50732 | 56 ft | 2 kts | 171° |
| 2026-05-05 14:30 | 39.18470 | 23.50710 | 55 ft | 14 kts | 202° |
| 2026-05-05 14:30 | 39.18325 | 23.50640 | 51 ft | 26 kts | 200° |
| 2026-05-05 14:31 | 39.18136 | 23.50555 | 51 ft | 32 kts | 198° |
| 2026-05-05 14:31 | 39.17966 | 23.50477 | 45 ft | 19 kts | 212° |
| 2026-05-05 14:31 | 39.17931 | 23.50406 | 42 ft | 2 kts | 251° |
| 2026-05-05 14:31 | 39.17929 | 23.50399 | 42 ft | 0 kts | 251° |
| 2026-05-05 14:32 | 39.17918 | 23.50359 | 40 ft | 13 kts | 247° |
| 2026-05-05 14:32 | 39.17833 | 23.50303 | 39 ft | 7 kts | 200° |
| 2026-05-05 14:32 | 39.17821 | 23.50271 | 39 ft | 3 kts | 262° |
| 2026-05-05 14:32 | 39.17832 | 23.50226 | 39 ft | 7 kts | 289° |
| 2026-05-05 14:33 | 39.17836 | 23.50212 | 39 ft | 0 kts | 289° |
| 2026-05-05 14:33 | 39.17836 | 23.50211 | 39 ft | 0 kts | 289° |